Aviation Digital Data Service (ADDS)

Output produced by METARs form (1103 UTC 19 January 2019)
found at http://www.aviationweather.gov/metar/data/
 
KMMI 191055Z AUTO 00000KT 4SM BR BKN042 BKN120 06/06 A2993 RMK A01
KM08 191055Z AUTO 13007KT 9SM BKN005 OVC026 12/12 A2963 RMK A01 P0004
KTRI 191053Z 00000KT 10SM OVC050 03/01 A2994 RMK AO2 SLP131 T00280011
KTRI 190532Z 1906/2006 00000KT P6SM BKN040 
     FM191900 13012G20KT P6SM VCSH SCT045 OVC070 
     FM200100 20014G25KT 4SM SHRA BR OVC030
       
KCHA 191053Z 00000KT 2SM BR OVC008 10/08 A2987 RMK AO2 PRESFR SLP114 T01000083
KCHA 191002Z 1910/2006 31004KT 4SM BR OVC009 
     FM191200 17010KT P6SM VCSH OVC020 
     FM191500 18014KT 4SM -SHRA BR SCT015 OVC030 
     FM192200 19012G24KT 4SM SHRA VCTS OVC010CB 
     FM200100 27015G25KT 6SM BR VCSH OVC015
       
KCKV 191052Z AUTO 14010KT 10SM -RA OVC007 11/09 A2967 RMK AO2 SLP046 P0004 T01110089
KCKV 190815Z 1908/2006 14009KT P6SM VCSH OVC035 
     TEMPO 1908/1910 4SM -SHRA OVC007 
     FM191000 15013G20KT 5SM -SHRA OVC008 
     TEMPO 1910/1914 2SM SHRA 
     FM192100 28011G17KT 5SM -SHRA OVC010 
     FM200200 33020G31KT 5SM -SHRASN OVC015
       
KM04 191055Z AUTO 16010KT 7SM OVC020 13/12 A2958 RMK A01 P0004
KCSV 191053Z AUTO 19008G15KT 7SM -RA OVC002 09/08 A2987 RMK AO2 RAB47 SLP113 P0000 T00890078
KCSV 190814Z 1908/2006 16009KT P6SM OVC003 
     FM191100 15008KT 6SM -SHRA OVC003 
     TEMPO 1912/1915 5SM -SHRA 
     FM191500 17013G20KT 5SM -SHRA OVC008 WS020/19045KT 
     FM200500 30013G20KT 5SM -SHRASN OVC003
       
K2A0 191055Z AUTO 00000KT 1 3/4SM BR BKN024 OVC031 07/07 A2988 RMK A01
KM02 191055Z AUTO 17011G20KT 3SM BR OVC005 10/10 A2966 RMK A01 P0037
KDYR 191056Z AUTO 15010KT 10SM -RA SCT008 BKN012 OVC021 12/12 A2959 RMK AO2 SLP038 T01220117 PNO $
K0A9 191055Z AUTO 08005KT 08/05 A2996 RMK AO2
KFYM 191100Z AUTO 15012KT 3SM BR BKN004 BKN015 OVC021 11/11 A2976 RMK A01
KGCY 191055Z AUTO VRB04G12KT 10SM FEW120 10/05 A2990 RMK A01
KHZD 191055Z AUTO 16011KT 10SM BKN009 BKN037 OVC044 12/12 A2963 RMK A01
KJAU 191055Z AUTO 00000KT 10SM SCT008 BKN036 OVC110 06/06 A2993 RMK A01
KMKL 191053Z AUTO 16010G18KT 6SM -RA BR FEW030 BKN047 OVC065 13/12 A2962 RMK AO2 RAB0959 SLP031 P0011 T01280122
KMKL 190626Z 1906/2006 17010G20KT 6SM -RA BR VCTS SCT007 OVC040CB WS020/22050KT 
     TEMPO 1906/1910 4SM -TSRA OVC010CB 
     FM191300 21010G25KT 5SM -RA BR VCTS OVC006CB 
     FM191900 32014G20KT 5SM -RA OVC015 
     TEMPO 2002/2006 5SM -SN OVC025
       
KTYS 191059Z 00000KT 1 1/2SM BR BKN001 05/05 A2992 RMK AO2 PRESRR T00500050
KTYS 191001Z 1910/2006 04007KT P6SM SCT045 BKN200 
     TEMPO 1910/1912 1SM BR 
     FM191200 05011KT P6SM FEW080 BKN150 
     FM191600 18014G20KT P6SM VCSH SCT025 BKN040 
     FM191900 20015G22KT 6SM -SHRA BR SCT020 OVC040 
     FM192200 22018G27KT 4SM SHRA BR OVC020 
     FM200200 23012G25KT 6SM BR VCSH OVC020
       
K2M2 191055Z AUTO 14012G20KT 3SM BR OVC006 11/11 A2971 RMK A01
KM54 191055Z AUTO 16010KT 4SM BR 11/10 A2976 RMK A01 P0016
KLUG 191055Z AUTO 13005KT 2SM BR FEW004 OVC010 12/11 A2973 RMK A01 P0015
KPVE 191055Z AUTO 16008G13KT 10SM FEW036 BKN050 OVC085 12/12 A2967 RMK A01 P0009
K8A3 191055Z AUTO 18012G18KT 4SM BR FEW017 BKN031 OVC060 10/08 A2979 RMK A01 P0006
KMNV 191055Z AUTO 00000KT 10SM SCT110 08/07 A2991 RMK A01
KRNC 191055Z AUTO 15007G13KT 130V190 6SM BR SCT033 SCT049 OVC065 11/10 A2980 RMK A01 P0017
KMEM 191054Z 16012KT 9SM -RA BKN012 OVC019 14/13 A2959 RMK AO2 LTG DSNT NW RAE11B40 SLP017 P0003 T01390133 $
KMEM 191043Z 1911/2012 17012G20KT 6SM -RA BR VCTS FEW008 OVC015CB WS020/22050KT 
     TEMPO 1911/1912 VRB20G35KT 2SM TSRA BR OVC008CB 
     FM191200 20010G25KT 5SM -RA BR VCTS OVC015CB 
     FM191500 32013G20KT 5SM -RA BR VCTS OVC015CB 
     FM191900 35015G23KT 6SM -RA BR OVC015 
     FM200000 35015G25KT P6SM VCSH OVC025 
     TEMPO 2002/2006 5SM -SN 
     FM200700 35015KT P6SM OVC025
       
KNQA 191055Z AUTO 14010KT 10SM SCT008 OVC013 13/12 A2957 RMK A01 P0001
KMOR 191055Z AUTO 00000KT 7SM CLR 05/05 A2990 RMK A01
KMBT 191055Z AUTO 06004KT 4SM BR OVC014 10/10 A2976 RMK A01 P0008
KJWN 191055Z AUTO 13006KT 4SM BR FEW003 BKN011 OVC032 10/10 A2974 RMK A01 P0019
KBNA 191053Z 16007KT 3SM RA BR BKN008 OVC039 11/09 A2978 RMK AO2 SLP083 P0025 T01060089
KBNA 190520Z 1906/2006 10004KT P6SM FEW009 SCT040 BKN150 
     FM190800 16009G15KT 6SM -SHRA OVC040 
     TEMPO 1909/1912 5SM -SHRA OVC025 
     FM191200 17012G20KT 5SM -SHRA OVC025 
     TEMPO 1912/1915 2SM SHRA OVC015 
     FM191900 20010G17KT 5SM -SHRA OVC015 WS020/20040KT 
     FM200400 33016G26KT 6SM -SHRASN OVC010
       
KSCX 191055Z AUTO 22007KT 10SM BKN075 OVC095 09/06 A2986 RMK A01
KPHT 191055Z AUTO 16008KT 10SM OVC009 12/11 A2963 RMK A01 P0001
KGZS 191055Z AUTO 15010KT 4SM BR OVC007 12/11 A2973 RMK A01 P0014
KRKW 191055Z AUTO 21006KT 7SM FEW026 BKN031 OVC095 08/07 A2987 RMK A01
KSNH 191055Z AUTO 00000KT 8SM FEW006 SCT011 BKN015 12/12 A2968 RMK A01 P0018
KSZY 191055Z AUTO VRB06G11KT 3SM BR OVC003 11/11 A2966 RMK A01 P0026
KGKT 191055Z AUTO 00000KT 3/4SM BR OVC004 03/03 A2992 RMK A01
KSYI 191055Z AUTO 15012KT 6SM BR FEW026 SCT036 BKN055 11/10 A2976 RMK A01 P0009
KMQY 191056Z AUTO 16006KT 5SM VCTS RA BR FEW014 OVC075 11/10 A2979 RMK AO2 LTG DSNT S TSB25E40B44 SLP023 P0010 T01060100
KMQY 190646Z 1907/2006 17003KT 6SM BR BKN150 
     FM190800 16009KT 6SM -SHRA OVC040 
     FM191000 17011G17KT 5SM -SHRA OVC020 
     TEMPO 1910/1914 2SM SHRA 
     FM191900 20011G17KT 5SM -SHRA OVC020 WS020/20045KT 
     FM200500 33018G28KT 6SM -SHRASN OVC015
       
KFYE 191055Z AUTO VRB05G13KT 8SM FEW006 SCT009 OVC017 13/12 A2960 RMK A01 P0010
KSRB 191055Z AUTO 15006G11KT 3SM BR FEW026 BKN034 OVC075 11/09 A2979 RMK A01 P0018
KM91 191055Z AUTO 16012G23KT 4SM BR OVC007 10/10 A2969 RMK A01 P0012
KTHA 191055Z AUTO 13007G15KT 3SM BR SCT006 BKN010 OVC065 11/10 A2976 RMK A01 P0020
KUCY 191055Z AUTO 16007KT 4SM BR FEW003 BKN011 OVC026 12/11 A2959 RMK A01 P0006
KBGF 191055Z AUTO 13009G15KT 4SM BR BKN017 BKN039 OVC075 11/10 A2980 RMK A01 P0016